Time;durP1;ratioP1;P1;durP2;ratioP2;P2;SDS_P1;SDS_P2;PMS_P1;PMS_P2;Temp;Humidity;BMP_temperature;BMP_pressure;BME280_temperature;BME280_humidity;BME280_pressure;Samples;Min_cycle;Max_cycle;Signal;HPM_P1;HPM_P2
2021/12/11 00:01:43;;;;;;;6.57;1.97;;;5.00;99.90;;;;;;5036195;28;20450;-51
2021/12/11 00:04:19;;;;;;;1.50;1.40;;;5.00;99.90;;;;;;5035002;28;20661;-49
2021/12/11 00:06:48;;;;;;;2.50;1.73;;;5.10;99.90;;;;;;5038921;28;20428;-45
2021/12/11 00:09:26;;;;;;;1.60;1.50;;;5.00;99.90;;;;;;5035349;28;20454;-48
2021/12/11 00:12:06;;;;;;;2.40;2.00;;;5.10;99.90;;;;;;5036074;28;20468;-46
2021/12/11 00:14:37;;;;;;;4.17;2.00;;;5.10;99.90;;;;;;5035992;28;20473;-50
2021/12/11 00:17:04;;;;;;;2.60;2.13;;;5.10;99.90;;;;;;5037937;28;21235;-51
2021/12/11 00:19:32;;;;;;;2.80;2.20;;;5.00;99.90;;;;;;5034509;28;20974;-46
2021/12/11 00:22:09;;;;;;;2.80;2.00;;;5.00;99.90;;;;;;5022605;28;21260;-49
2021/12/11 00:24:36;;;;;;;3.63;2.30;;;5.10;99.90;;;;;;5035198;28;20434;-44
2021/12/11 00:27:11;;;;;;;2.33;1.90;;;5.00;99.90;;;;;;5039521;28;20510;-45
2021/12/11 00:29:38;;;;;;;2.70;2.10;;;5.00;99.90;;;;;;5036005;28;20461;-49
2021/12/11 00:32:21;;;;;;;2.57;2.10;;;4.90;99.90;;;;;;5040880;28;20446;-49
2021/12/11 00:34:48;;;;;;;2.43;1.83;;;4.80;99.90;;;;;;5037864;28;20831;-45
2021/12/11 00:37:15;;;;;;;2.37;2.10;;;4.80;99.90;;;;;;5053368;28;20457;-47
2021/12/11 00:39:57;;;;;;;2.33;1.90;;;4.90;99.90;;;;;;5037724;28;20439;-48
2021/12/11 00:42:31;;;;;;;7.10;2.37;;;4.90;99.90;;;;;;5041391;28;20572;-46
2021/12/11 00:44:59;;;;;;;2.20;1.70;;;4.90;99.90;;;;;;5038043;28;20437;-48
2021/12/11 00:47:31;;;;;;;3.40;2.17;;;4.90;99.90;;;;;;5039368;28;20422;-48
2021/12/11 00:50:05;;;;;;;2.53;1.90;;;4.90;99.90;;;;;;5037256;28;20557;-47
2021/12/11 00:52:35;;;;;;;3.60;1.97;;;4.90;99.90;;;;;;5036168;28;20493;-48
2021/12/11 00:55:06;;;;;;;5.10;2.00;;;4.80;99.90;;;;;;5035867;28;21217;-52
2021/12/11 00:57:32;;;;;;;2.10;1.90;;;4.80;99.90;;;;;;5038081;28;20821;-47
2021/12/11 01:00:00;;;;;;;2.17;1.97;;;4.90;99.90;;;;;;5033612;28;20442;-45
2021/12/11 01:02:27;;;;;;;2.50;2.23;;;4.90;99.90;;;;;;5040041;28;20298;-47
2021/12/11 01:04:52;;;;;;;3.00;2.10;;;4.90;99.90;;;;;;5038374;28;20426;-49
2021/12/11 01:07:21;;;;;;;2.50;2.30;;;4.90;99.90;;;;;;5036549;28;20446;-45
2021/12/11 01:09:55;;;;;;;2.53;2.20;;;5.00;99.90;;;;;;5035440;28;20196;-46
2021/12/11 01:12:47;;;;;;;2.67;2.03;;;5.10;99.90;;;;;;5035563;28;20526;-44
2021/12/11 01:15:16;;;;;;;3.30;2.10;;;5.10;99.90;;;;;;5038176;28;20521;-44
2021/12/11 01:18:21;;;;;;;2.80;2.43;;;5.10;99.90;;;;;;5041324;28;20434;-48
2021/12/11 01:21:14;;;;;;;3.83;2.67;;;5.10;99.90;;;;;;5040236;28;20994;-44
2021/12/11 01:26:14;;;;;;;2.50;2.27;;;5.20;99.90;;;;;;5043670;28;20430;-43
2021/12/11 01:28:40;;;;;;;2.30;2.10;;;5.10;99.90;;;;;;5042425;28;20426;-44
2021/12/11 01:31:09;;;;;;;2.70;2.50;;;5.00;99.90;;;;;;5038248;28;20469;-45
2021/12/11 01:33:35;;;;;;;3.33;2.40;;;4.80;99.90;;;;;;5039946;28;20438;-49
2021/12/11 01:36:03;;;;;;;3.40;2.30;;;4.80;99.90;;;;;;5039972;28;20431;-48
2021/12/11 01:38:31;;;;;;;3.30;3.00;;;4.60;99.90;;;;;;5041793;28;20425;-46
2021/12/11 01:41:02;;;;;;;3.27;2.60;;;4.60;99.90;;;;;;5041507;28;20458;-55
2021/12/11 01:43:31;;;;;;;5.37;3.30;;;4.70;99.90;;;;;;5039224;28;20434;-47
2021/12/11 01:45:59;;;;;;;3.50;3.00;;;4.80;99.90;;;;;;5038717;28;20472;-48
2021/12/11 01:48:30;;;;;;;2.40;2.17;;;4.80;99.90;;;;;;5040363;28;20471;-50
2021/12/11 01:51:02;;;;;;;5.13;3.40;;;4.80;99.90;;;;;;5041665;28;20598;-47
2021/12/11 01:53:33;;;;;;;3.27;2.90;;;4.60;99.90;;;;;;5042378;28;20426;-47
2021/12/11 01:56:07;;;;;;;3.87;3.23;;;4.60;99.90;;;;;;5035700;28;21034;-45
2021/12/11 01:59:04;;;;;;;4.30;3.13;;;4.60;99.90;;;;;;5040515;28;20421;-48
2021/12/11 02:01:36;;;;;;;5.60;3.50;;;4.60;99.90;;;;;;5033387;28;20549;-49
2021/12/11 02:04:06;;;;;;;4.43;3.33;;;4.60;99.90;;;;;;5036340;28;20505;-47
2021/12/11 02:06:35;;;;;;;3.93;3.20;;;4.60;99.90;;;;;;5041535;28;20426;-48
2021/12/11 02:09:19;;;;;;;3.33;2.93;;;4.60;99.90;;;;;;5039879;28;20449;-47
2021/12/11 02:11:47;;;;;;;3.30;3.00;;;4.60;99.90;;;;;;5039782;28;20540;-44
2021/12/11 02:14:16;;;;;;;4.90;3.30;;;4.70;99.90;;;;;;5041144;28;20514;-46
2021/12/11 02:16:48;;;;;;;3.70;3.13;;;4.70;99.90;;;;;;5038130;28;20628;-47
2021/12/11 02:19:28;;;;;;;3.73;3.33;;;4.80;99.90;;;;;;5041467;28;20808;-47
2021/12/11 02:21:59;;;;;;;3.77;3.43;;;4.80;99.90;;;;;;5038373;28;20477;-46
2021/12/11 02:24:36;;;;;;;4.77;3.50;;;4.80;99.90;;;;;;5039127;28;20521;-48
2021/12/11 02:27:08;;;;;;;3.33;3.00;;;4.90;99.90;;;;;;5035034;28;20426;-47
2021/12/11 02:29:45;;;;;;;4.20;3.70;;;4.80;99.90;;;;;;5037575;28;20466;-42
2021/12/11 02:32:26;;;;;;;3.77;3.23;;;4.80;99.90;;;;;;5041080;28;20454;-48
2021/12/11 02:35:08;;;;;;;4.23;3.40;;;4.80;99.90;;;;;;5039914;28;20433;-45
2021/12/11 02:37:43;;;;;;;3.20;2.60;;;4.80;99.90;;;;;;5039869;28;20435;-48
2021/12/11 02:40:18;;;;;;;2.67;2.47;;;4.80;99.90;;;;;;5039821;28;20433;-46
2021/12/11 02:43:03;;;;;;;2.80;2.50;;;4.70;99.90;;;;;;5038625;28;20454;-46
2021/12/11 02:45:40;;;;;;;3.20;2.60;;;4.80;99.90;;;;;;5040900;28;20441;-45
2021/12/11 02:48:32;;;;;;;3.27;2.97;;;4.80;99.90;;;;;;5040669;28;21138;-43
2021/12/11 02:51:20;;;;;;;2.70;2.50;;;5.00;99.90;;;;;;5038129;28;20800;-45
2021/12/11 02:53:53;;;;;;;3.70;3.17;;;5.00;99.90;;;;;;5039018;28;20451;-47
2021/12/11 02:56:30;;;;;;;3.23;2.93;;;4.90;99.90;;;;;;5039429;28;20431;-42
2021/12/11 02:58:59;;;;;;;2.67;2.43;;;4.70;99.90;;;;;;5037313;28;20453;-44
2021/12/11 03:01:33;;;;;;;3.50;3.20;;;4.50;99.90;;;;;;5038747;28;20462;-48
2021/12/11 03:04:18;;;;;;;4.60;3.27;;;4.40;99.90;;;;;;5040843;28;20448;-43
2021/12/11 03:06:47;;;;;;;5.40;3.43;;;4.50;99.90;;;;;;5039234;28;20453;-42
2021/12/11 03:09:17;;;;;;;4.03;3.23;;;4.40;99.90;;;;;;5040933;28;20544;-44
2021/12/11 03:11:43;;;;;;;3.00;2.73;;;4.40;99.90;;;;;;5038730;28;20474;-44
2021/12/11 03:14:12;;;;;;;3.33;3.03;;;4.50;99.90;;;;;;5040200;28;20438;-49
2021/12/11 03:16:39;;;;;;;3.40;3.10;;;4.40;99.90;;;;;;5039536;28;20805;-46
2021/12/11 03:19:09;;;;;;;3.97;3.23;;;4.50;99.90;;;;;;5039184;28;20449;-47
2021/12/11 03:21:37;;;;;;;2.90;2.63;;;4.50;99.90;;;;;;5037276;28;21010;-50
2021/12/11 03:24:03;;;;;;;3.80;3.50;;;4.50;99.90;;;;;;5040254;28;20438;-47
2021/12/11 03:26:29;;;;;;;3.80;3.40;;;4.50;99.90;;;;;;5038152;28;20438;-46
2021/12/11 03:28:55;;;;;;;3.83;3.23;;;4.60;99.90;;;;;;5038802;28;20463;-46
2021/12/11 03:31:21;;;;;;;3.60;3.13;;;4.60;99.90;;;;;;5036485;28;20211;-45
2021/12/11 03:33:52;;;;;;;4.50;3.10;;;4.50;99.90;;;;;;5039692;28;20183;-48
2021/12/11 03:36:19;;;;;;;3.93;3.53;;;4.50;99.90;;;;;;5040889;28;20442;-46
2021/12/11 03:38:57;;;;;;;3.27;2.97;;;4.50;99.90;;;;;;5036706;28;20465;-46
2021/12/11 03:41:25;;;;;;;4.60;4.20;;;4.50;99.90;;;;;;5039390;28;21094;-45
2021/12/11 03:43:51;;;;;;;5.67;3.63;;;4.50;99.90;;;;;;5038516;28;20442;-43
2021/12/11 03:46:18;;;;;;;4.07;3.40;;;4.50;99.90;;;;;;5040065;28;20435;-48
2021/12/11 03:48:50;;;;;;;5.73;3.90;;;4.50;99.90;;;;;;5040833;28;20454;-45
2021/12/11 03:51:20;;;;;;;5.10;4.40;;;4.40;99.90;;;;;;5040461;28;20840;-44
2021/12/11 03:53:46;;;;;;;5.73;4.20;;;4.50;99.90;;;;;;5034964;28;20826;-42
2021/12/11 03:56:14;;;;;;;5.97;5.00;;;4.50;99.90;;;;;;5038084;28;20446;-48
2021/12/11 03:58:48;;;;;;;5.30;4.67;;;4.50;99.90;;;;;;5034771;28;20446;-49
2021/12/11 04:01:31;;;;;;;4.90;4.40;;;4.50;99.90;;;;;;5031557;28;20547;-44
2021/12/11 04:04:02;;;;;;;6.13;5.53;;;4.60;99.90;;;;;;5032851;28;20418;-43
2021/12/11 04:06:28;;;;;;;6.20;4.87;;;4.50;99.90;;;;;;5037352;28;20492;-44
2021/12/11 04:08:56;;;;;;;8.00;5.10;;;4.50;99.90;;;;;;5037518;28;21020;-42
2021/12/11 04:11:29;;;;;;;8.27;5.63;;;4.60;99.90;;;;;;5035553;28;20386;-48
2021/12/11 04:14:01;;;;;;;6.90;5.67;;;4.60;99.90;;;;;;5038957;28;20862;-44
2021/12/11 04:16:28;;;;;;;6.60;6.00;;;4.40;99.90;;;;;;5040301;28;20781;-42
2021/12/11 04:18:54;;;;;;;7.33;5.87;;;4.50;99.90;;;;;;5040578;28;20533;-45
2021/12/11 04:21:20;;;;;;;8.10;6.67;;;4.50;99.90;;;;;;5038147;28;20498;-43
2021/12/11 04:23:46;;;;;;;8.20;6.20;;;4.60;99.90;;;;;;5037352;28;20446;-46
2021/12/11 04:26:12;;;;;;;7.97;6.80;;;4.60;99.90;;;;;;5041127;28;20511;-43
2021/12/11 04:28:42;;;;;;;6.90;6.13;;;4.60;99.90;;;;;;5041739;28;20512;-42
2021/12/11 04:31:13;;;;;;;7.37;5.83;;;4.60;99.90;;;;;;5036252;28;20211;-44
2021/12/11 04:33:42;;;;;;;8.60;7.07;;;4.40;99.90;;;;;;5039023;28;20435;-42
2021/12/11 04:36:14;;;;;;;7.53;6.23;;;4.50;99.90;;;;;;5037833;28;20447;-43
2021/12/11 04:38:40;;;;;;;10.37;7.30;;;4.40;99.90;;;;;;5036236;28;20832;-42
2021/12/11 04:41:08;;;;;;;8.93;6.90;;;4.40;99.90;;;;;;5038108;28;21043;-44
2021/12/11 04:43:35;;;;;;;8.80;6.43;;;4.40;99.90;;;;;;5037891;28;20430;-44
2021/12/11 04:46:06;;;;;;;9.00;6.63;;;4.50;99.90;;;;;;5037347;28;20541;-43
2021/12/11 04:49:12;;;;;;;9.03;7.50;;;4.50;99.90;;;;;;5038018;28;20414;-46
2021/12/11 04:51:45;;;;;;;8.47;7.40;;;4.60;99.90;;;;;;5036158;28;21051;-46
2021/12/11 04:54:35;;;;;;;8.87;7.67;;;4.60;99.90;;;;;;5036038;28;20981;-45
2021/12/11 05:07:45;;;;;;;10.33;8.30;;;4.60;99.90;;;;;;5031314;28;20995;-43
2021/12/11 05:10:22;;;;;;;10.20;7.33;;;4.60;99.90;;;;;;5038513;28;20474;-45
2021/12/11 05:12:52;;;;;;;10.43;7.57;;;4.60;99.90;;;;;;5038264;28;20461;-47
2021/12/11 05:15:33;;;;;;;11.87;8.53;;;4.60;99.90;;;;;;5038211;28;20431;-47
2021/12/11 05:18:02;;;;;;;11.37;8.10;;;4.50;99.90;;;;;;5037974;28;20434;-44
2021/12/11 05:20:32;;;;;;;10.93;8.07;;;4.50;99.90;;;;;;5038298;28;20437;-48
2021/12/11 05:22:59;;;;;;;10.80;9.00;;;4.40;99.90;;;;;;5032824;28;20434;-48
2021/12/11 05:25:25;;;;;;;11.67;8.87;;;4.50;99.90;;;;;;5035153;28;20449;-45
2021/12/11 05:27:50;;;;;;;12.13;8.67;;;4.50;99.90;;;;;;5037724;28;20434;-47
2021/12/11 05:30:26;;;;;;;10.20;8.27;;;4.50;99.90;;;;;;5038103;28;21192;-50
2021/12/11 05:32:54;;;;;;;10.70;8.03;;;4.50;99.90;;;;;;5034594;28;20206;-42
2021/12/11 05:35:20;;;;;;;9.83;8.23;;;4.50;99.90;;;;;;5034384;28;20510;-44
2021/12/11 05:37:46;;;;;;;10.37;8.33;;;4.50;99.90;;;;;;5037609;28;20423;-49
2021/12/11 05:40:18;;;;;;;10.57;8.60;;;4.50;99.90;;;;;;5036144;28;20512;-49
2021/12/11 05:42:44;;;;;;;9.10;7.77;;;4.50;99.90;;;;;;5037895;28;20933;-47
2021/12/11 05:45:10;;;;;;;11.27;8.33;;;4.50;99.90;;;;;;5039062;28;20435;-50
2021/12/11 05:47:36;;;;;;;11.07;7.57;;;4.60;99.90;;;;;;5039718;28;20442;-43
2021/12/11 05:50:07;;;;;;;11.27;8.27;;;4.60;99.90;;;;;;5038122;28;20204;-46
2021/12/11 05:52:33;;;;;;;11.43;8.90;;;4.60;99.90;;;;;;5036420;28;20454;-46
2021/12/11 05:54:59;;;;;;;10.03;7.70;;;4.60;99.90;;;;;;5037087;28;20441;-50
2021/12/11 05:57:26;;;;;;;11.13;9.40;;;4.60;99.90;;;;;;5033946;28;20549;-46
2021/12/11 05:59:52;;;;;;;11.30;9.20;;;4.60;99.90;;;;;;5036445;28;20180;-49
2021/12/11 06:02:25;;;;;;;12.13;9.63;;;4.60;99.90;;;;;;5037785;28;21009;-46
2021/12/11 06:04:53;;;;;;;10.73;9.30;;;4.70;99.90;;;;;;5038798;28;20444;-45
2021/12/11 06:07:21;;;;;;;13.07;9.80;;;4.80;99.90;;;;;;5040856;28;20430;-44
2021/12/11 06:09:51;;;;;;;12.33;9.20;;;4.90;99.90;;;;;;5038698;28;21178;-50
2021/12/11 06:12:18;;;;;;;13.50;10.90;;;4.90;99.90;;;;;;5038129;28;20473;-47
2021/12/11 06:14:45;;;;;;;13.27;10.03;;;4.80;99.90;;;;;;5040392;28;20440;-47
2021/12/11 06:17:15;;;;;;;13.10;9.97;;;4.80;99.90;;;;;;5040658;28;21070;-50
2021/12/11 06:19:49;;;;;;;12.90;10.07;;;4.80;99.90;;;;;;5039190;28;20434;-46
2021/12/11 06:22:16;;;;;;;12.50;9.77;;;4.90;99.90;;;;;;5043087;28;20489;-47
2021/12/11 06:24:42;;;;;;;14.83;10.60;;;5.00;99.90;;;;;;5037913;28;20438;-47
2021/12/11 06:27:07;;;;;;;13.43;10.20;;;5.00;99.90;;;;;;5039085;28;20800;-48
2021/12/11 06:29:33;;;;;;;12.80;9.70;;;4.90;99.90;;;;;;5039325;28;20192;-43
2021/12/11 06:31:59;;;;;;;12.47;9.97;;;5.00;99.90;;;;;;5039364;28;20230;-46
2021/12/11 06:34:25;;;;;;;13.90;10.90;;;5.00;99.90;;;;;;5040634;28;20196;-44
2021/12/11 06:36:50;;;;;;;14.17;10.73;;;5.00;99.90;;;;;;5041049;28;20184;-46
2021/12/11 06:39:20;;;;;;;13.00;10.20;;;5.10;99.90;;;;;;5038093;28;20434;-49
2021/12/11 06:41:50;;;;;;;11.70;10.00;;;5.00;99.90;;;;;;5038653;28;20203;-46
2021/12/11 06:44:16;;;;;;;12.40;10.00;;;5.00;99.90;;;;;;5039623;28;20443;-45
2021/12/11 06:46:42;;;;;;;12.27;10.20;;;5.10;99.90;;;;;;5040475;28;20970;-47
2021/12/11 06:49:09;;;;;;;16.23;11.17;;;5.00;99.90;;;;;;5039833;28;20966;-44
2021/12/11 06:51:35;;;;;;;12.00;10.20;;;5.00;99.90;;;;;;5041633;28;20438;-49
2021/12/11 06:54:05;;;;;;;13.20;10.10;;;5.00;99.90;;;;;;5037205;28;20529;-45
2021/12/11 06:56:31;;;;;;;12.87;10.43;;;5.00;99.90;;;;;;5041562;28;20421;-47
2021/12/11 06:58:58;;;;;;;13.70;10.90;;;5.00;99.90;;;;;;5039432;28;20540;-47
2021/12/11 07:01:25;;;;;;;12.43;10.90;;;4.90;99.90;;;;;;5038560;28;20211;-45
2021/12/11 07:03:51;;;;;;;16.80;11.90;;;4.90;99.90;;;;;;5040195;28;20427;-48
2021/12/11 07:06:18;;;;;;;19.90;11.07;;;4.90;99.90;;;;;;5041161;28;20441;-49
2021/12/11 07:08:44;;;;;;;14.33;10.90;;;5.00;99.90;;;;;;5038843;28;20779;-50
2021/12/11 07:11:12;;;;;;;14.30;10.80;;;4.90;99.90;;;;;;5035757;28;20485;-48
2021/12/11 07:13:40;;;;;;;12.93;10.40;;;5.00;99.90;;;;;;5040174;28;20947;-47
2021/12/11 07:16:06;;;;;;;15.30;11.00;;;5.00;99.90;;;;;;5038031;28;20517;-49
2021/12/11 07:18:33;;;;;;;12.87;10.43;;;5.10;99.90;;;;;;5040444;28;20525;-49
2021/12/11 07:21:00;;;;;;;14.70;11.17;;;5.10;99.90;;;;;;5042190;28;20446;-49
2021/12/11 07:23:26;;;;;;;15.17;11.97;;;5.00;99.90;;;;;;5039580;28;20849;-49
2021/12/11 07:26:16;;;;;;;15.70;10.97;;;5.00;99.90;;;;;;5043306;28;20864;-45
2021/12/11 07:28:44;;;;;;;14.70;12.33;;;4.90;99.90;;;;;;5042488;28;20424;-45
2021/12/11 07:31:10;;;;;;;15.23;11.03;;;5.00;99.90;;;;;;5036447;28;20449;-43
2021/12/11 07:33:37;;;;;;;15.67;12.07;;;4.80;99.90;;;;;;5038207;28;20465;-51
2021/12/11 07:36:04;;;;;;;16.00;11.17;;;4.80;99.90;;;;;;5042457;28;20508;-46
2021/12/11 07:38:31;;;;;;;16.10;11.73;;;4.80;99.90;;;;;;5039854;28;20434;-46
2021/12/11 07:41:00;;;;;;;13.00;10.80;;;4.80;99.90;;;;;;5038389;28;21592;-44
2021/12/11 07:43:27;;;;;;;13.90;10.57;;;4.80;99.90;;;;;;5036390;28;20449;-46
2021/12/11 07:45:55;;;;;;;13.33;10.17;;;4.90;99.90;;;;;;5041635;28;20873;-54
2021/12/11 07:48:21;;;;;;;13.87;11.10;;;5.00;99.90;;;;;;5037401;28;20421;-44
2021/12/11 07:50:46;;;;;;;14.30;11.13;;;4.90;99.90;;;;;;5040432;28;20528;-43
2021/12/11 07:53:14;;;;;;;17.27;13.27;;;4.90;99.90;;;;;;5039513;28;20725;-44
2021/12/11 07:55:41;;;;;;;13.47;11.07;;;5.00;99.90;;;;;;5037209;28;20275;-44
2021/12/11 07:58:07;;;;;;;13.53;11.00;;;5.00;99.90;;;;;;5036599;28;20500;-43
2021/12/11 08:00:36;;;;;;;14.10;11.10;;;5.00;99.90;;;;;;5032966;28;20438;-46
2021/12/11 08:03:03;;;;;;;12.80;9.67;;;4.90;99.90;;;;;;5037843;28;21468;-45
2021/12/11 08:05:29;;;;;;;12.27;10.50;;;4.90;99.90;;;;;;5039822;28;20480;-44
2021/12/11 08:08:00;;;;;;;15.37;11.33;;;5.00;99.90;;;;;;5036640;28;20461;-45
2021/12/11 08:10:27;;;;;;;17.57;10.67;;;4.90;99.90;;;;;;5041031;28;21031;-44
2021/12/11 08:12:54;;;;;;;13.87;10.67;;;4.90;99.90;;;;;;5038641;28;20536;-48
2021/12/11 08:15:20;;;;;;;13.20;10.50;;;5.00;99.90;;;;;;5038733;28;20434;-47
2021/12/11 08:17:52;;;;;;;12.67;9.83;;;5.00;99.90;;;;;;5036960;28;20180;-45
2021/12/11 08:20:18;;;;;;;16.43;10.80;;;5.00;99.90;;;;;;5036657;28;20426;-49
2021/12/11 08:22:44;;;;;;;13.73;10.80;;;4.80;99.90;;;;;;5038000;28;20496;-45
2021/12/11 08:25:11;;;;;;;12.20;10.13;;;4.80;99.90;;;;;;5035399;28;20481;-45
2021/12/11 08:27:37;;;;;;;15.33;10.07;;;4.90;99.90;;;;;;5039780;28;20187;-47
2021/12/11 08:30:04;;;;;;;15.03;12.37;;;4.90;99.90;;;;;;5035294;28;20465;-46
2021/12/11 08:32:30;;;;;;;13.57;11.10;;;5.00;99.90;;;;;;5038043;28;20475;-49
2021/12/11 08:34:56;;;;;;;12.07;10.10;;;5.00;99.90;;;;;;5040951;28;20793;-50
2021/12/11 08:37:24;;;;;;;15.13;10.37;;;5.10;99.90;;;;;;5034163;28;20440;-48
2021/12/11 08:39:51;;;;;;;13.53;10.20;;;5.10;99.90;;;;;;5035795;28;20435;-47
2021/12/11 08:42:21;;;;;;;13.33;11.00;;;5.30;99.90;;;;;;5038939;28;20828;-46
2021/12/11 08:44:52;;;;;;;11.47;9.70;;;5.20;99.90;;;;;;5034894;28;21002;-48
2021/12/11 08:47:21;;;;;;;12.30;9.70;;;5.10;99.90;;;;;;5034869;28;21137;-43
2021/12/11 08:49:49;;;;;;;14.90;11.23;;;5.10;99.90;;;;;;5036235;28;21361;-44
2021/12/11 08:52:17;;;;;;;13.80;10.80;;;5.00;99.90;;;;;;5032887;28;20508;-46
2021/12/11 08:54:44;;;;;;;15.60;11.40;;;5.00;99.90;;;;;;5035691;28;20435;-50
2021/12/11 08:57:12;;;;;;;11.90;10.07;;;5.00;99.90;;;;;;5037709;28;20969;-47
2021/12/11 08:59:43;;;;;;;15.90;11.20;;;5.00;99.90;;;;;;5035858;28;20465;-50
2021/12/11 09:02:16;;;;;;;13.60;10.67;;;4.90;99.90;;;;;;5037906;28;20453;-49
2021/12/11 09:04:55;;;;;;;12.10;9.37;;;5.00;99.90;;;;;;5034640;28;20438;-48
2021/12/11 09:07:38;;;;;;;13.30;11.00;;;5.00;99.90;;;;;;5036712;28;20441;-48
2021/12/11 09:10:10;;;;;;;15.80;11.03;;;5.10;99.90;;;;;;5032154;28;20843;-49
2021/12/11 09:12:43;;;;;;;14.30;10.30;;;5.10;99.90;;;;;;5033961;28;20471;-47
2021/12/11 09:15:42;;;;;;;15.87;11.70;;;5.00;99.90;;;;;;5035416;28;20847;-46
2021/12/11 09:18:21;;;;;;;16.10;12.20;;;5.10;99.90;;;;;;5036612;28;20430;-49
2021/12/11 09:21:05;;;;;;;14.23;11.27;;;5.20;99.90;;;;;;5033789;28;20451;-42
2021/12/11 09:23:38;;;;;;;16.07;11.33;;;5.10;99.90;;;;;;5033819;28;20448;-47
2021/12/11 09:26:24;;;;;;;14.37;10.77;;;5.10;99.90;;;;;;5028384;28;20485;-47
2021/12/11 09:28:58;;;;;;;12.33;10.17;;;5.10;99.90;;;;;;5030895;28;20443;-45
2021/12/11 09:31:32;;;;;;;15.83;11.90;;;5.10;99.90;;;;;;5029638;28;20458;-44
2021/12/11 09:34:08;;;;;;;15.13;12.00;;;5.20;99.90;;;;;;5032466;28;20553;-48
2021/12/11 09:36:39;;;;;;;14.80;11.47;;;5.10;99.90;;;;;;5022229;28;20435;-50
2021/12/11 09:39:17;;;;;;;14.23;11.10;;;5.20;99.90;;;;;;5038340;28;20476;-47
2021/12/11 09:41:43;;;;;;;17.20;11.50;;;5.30;99.90;;;;;;5036107;28;20462;-45
2021/12/11 09:44:20;;;;;;;15.27;11.10;;;5.40;99.90;;;;;;5032676;28;20447;-48
2021/12/11 09:46:53;;;;;;;13.87;10.50;;;5.40;99.90;;;;;;5039592;28;20171;-43
2021/12/11 09:49:24;;;;;;;12.00;9.90;;;5.30;99.90;;;;;;5029595;28;20497;-47
2021/12/11 09:52:00;;;;;;;14.03;9.57;;;5.30;99.90;;;;;;5042103;28;20445;-50
2021/12/11 09:54:26;;;;;;;14.67;11.20;;;5.40;99.90;;;;;;5039141;28;20433;-48
2021/12/11 09:57:06;;;;;;;16.40;12.07;;;5.30;99.90;;;;;;5039869;28;20528;-49
2021/12/11 09:59:35;;;;;;;16.63;10.67;;;5.40;99.90;;;;;;5032608;28;20470;-43
2021/12/11 10:02:06;;;;;;;16.03;11.37;;;5.40;99.90;;;;;;5039877;28;20822;-43
2021/12/11 10:04:43;;;;;;;18.00;13.40;;;5.40;99.90;;;;;;5037867;28;20773;-47
2021/12/11 10:07:28;;;;;;;14.27;11.53;;;5.40;99.90;;;;;;5037047;28;21182;-48
2021/12/11 10:10:00;;;;;;;15.70;12.53;;;5.40;99.90;;;;;;5036378;28;20470;-51
2021/12/11 10:12:34;;;;;;;16.87;13.30;;;5.60;99.90;;;;;;5040740;28;20495;-46
2021/12/11 10:15:11;;;;;;;14.13;11.77;;;5.50;99.90;;;;;;5042007;28;20421;-44
2021/12/11 10:17:43;;;;;;;18.90;12.57;;;5.50;99.90;;;;;;5038842;28;20430;-45
2021/12/11 10:20:25;;;;;;;17.13;12.60;;;5.60;99.90;;;;;;5033726;28;20414;-47
2021/12/11 10:22:52;;;;;;;15.77;12.13;;;5.40;99.90;;;;;;5037163;28;20445;-49
2021/12/11 10:25:23;;;;;;;16.50;11.83;;;5.30;99.90;;;;;;5035258;28;20442;-43
2021/12/11 10:27:49;;;;;;;17.17;13.20;;;5.40;99.90;;;;;;5041794;28;20485;-46
2021/12/11 10:30:22;;;;;;;18.83;13.70;;;5.40;99.90;;;;;;5041214;28;20468;-48
2021/12/11 10:32:48;;;;;;;17.83;13.27;;;5.50;99.90;;;;;;5034722;28;21647;-47
2021/12/11 10:35:18;;;;;;;17.90;13.47;;;5.50;99.90;;;;;;5041064;28;20435;-48
2021/12/11 10:37:44;;;;;;;16.30;11.70;;;5.50;99.90;;;;;;5040341;28;20211;-50
2021/12/11 10:40:26;;;;;;;18.27;12.93;;;5.60;99.90;;;;;;5041317;28;20426;-46
2021/12/11 10:43:00;;;;;;;16.70;12.63;;;5.70;99.90;;;;;;5040858;28;21007;-44
2021/12/11 10:45:27;;;;;;;19.30;12.87;;;5.70;99.90;;;;;;5042748;28;20430;-44
2021/12/11 10:48:00;;;;;;;15.80;11.40;;;5.80;99.90;;;;;;5039804;28;20533;-50
2021/12/11 10:50:56;;;;;;;17.87;13.30;;;6.00;99.90;;;;;;5037952;28;20463;-45
2021/12/11 10:53:24;;;;;;;14.97;10.30;;;6.20;99.90;;;;;;5038089;28;20433;-50
2021/12/11 10:55:52;;;;;;;14.83;10.97;;;6.20;99.90;;;;;;5038294;28;20426;-45
2021/12/11 10:58:29;;;;;;;16.80;11.80;;;6.30;99.90;;;;;;5036561;28;20521;-43
2021/12/11 11:01:21;;;;;;;14.00;9.53;;;6.40;99.90;;;;;;5036965;28;20477;-46
2021/12/11 11:03:53;;;;;;;11.50;9.23;;;6.50;99.90;;;;;;5030643;28;20430;-47
2021/12/11 11:06:19;;;;;;;13.80;10.63;;;6.50;99.90;;;;;;5036704;28;20517;-48
2021/12/11 11:08:46;;;;;;;12.50;9.60;;;6.50;99.90;;;;;;5039504;28;20441;-47
2021/12/11 11:11:18;;;;;;;11.00;8.63;;;6.50;99.90;;;;;;5038500;28;20523;-45
2021/12/11 11:13:45;;;;;;;9.43;7.23;;;6.60;99.90;;;;;;5037388;28;21257;-49
2021/12/11 11:16:12;;;;;;;7.53;6.13;;;6.50;99.90;;;;;;5041617;28;20434;-48
2021/12/11 11:18:38;;;;;;;9.97;7.40;;;6.40;99.90;;;;;;5041937;28;21078;-50
2021/12/11 11:21:10;;;;;;;7.53;6.57;;;6.50;99.90;;;;;;5036688;28;20447;-51
2021/12/11 11:23:36;;;;;;;7.87;6.37;;;6.70;99.90;;;;;;5041577;28;20188;-48
2021/12/11 11:26:07;;;;;;;7.77;6.97;;;6.70;99.90;;;;;;5041148;28;20786;-49
2021/12/11 11:28:34;;;;;;;9.13;7.10;;;6.70;99.90;;;;;;5041288;28;20459;-47
2021/12/11 11:31:10;;;;;;;6.83;5.97;;;6.70;99.90;;;;;;5038254;28;20467;-47
2021/12/11 11:33:37;;;;;;;6.50;5.33;;;7.00;99.90;;;;;;5039426;28;20442;-44
2021/12/11 11:36:05;;;;;;;7.00;5.30;;;7.20;99.90;;;;;;5041787;28;20426;-46
2021/12/11 11:38:36;;;;;;;9.73;6.80;;;7.20;99.90;;;;;;5042833;28;20426;-48
2021/12/11 11:41:10;;;;;;;8.43;7.13;;;7.00;99.90;;;;;;5038574;28;20806;-50
2021/12/11 11:43:37;;;;;;;7.37;6.00;;;7.10;99.90;;;;;;5042052;28;20430;-48
2021/12/11 11:46:04;;;;;;;8.70;6.30;;;7.00;99.90;;;;;;5040159;28;20803;-49
2021/12/11 11:48:33;;;;;;;10.73;6.70;;;6.80;99.90;;;;;;5036248;28;20866;-51
2021/12/11 11:51:03;;;;;;;7.93;6.30;;;7.00;99.90;;;;;;5040640;28;20474;-46
2021/12/11 11:53:29;;;;;;;6.83;5.50;;;6.90;99.90;;;;;;5039538;28;20787;-48
2021/12/11 11:56:02;;;;;;;8.67;6.70;;;6.90;99.90;;;;;;5038721;28;20457;-50
2021/12/11 11:58:29;;;;;;;8.00;5.80;;;6.90;99.90;;;;;;5040001;28;20194;-47
2021/12/11 12:00:59;;;;;;;10.17;7.17;;;6.80;99.90;;;;;;5036886;28;20454;-47
2021/12/11 12:03:28;;;;;;;9.37;7.00;;;6.90;99.90;;;;;;5038289;28;20418;-45
2021/12/11 12:05:59;;;;;;;7.57;6.60;;;7.00;99.90;;;;;;5037628;28;20523;-47
2021/12/11 12:08:26;;;;;;;8.77;7.57;;;7.10;99.90;;;;;;5036431;28;20998;-49
2021/12/11 12:10:54;;;;;;;9.20;8.00;;;7.00;99.90;;;;;;5038007;28;20521;-46
2021/12/11 12:13:24;;;;;;;10.07;7.80;;;6.90;99.90;;;;;;5030550;28;20526;-52
2021/12/11 12:15:55;;;;;;;8.93;6.97;;;6.80;99.90;;;;;;5031399;28;20494;-50
2021/12/11 12:18:22;;;;;;;9.20;7.40;;;7.10;99.90;;;;;;5039220;28;20430;-45
2021/12/11 12:20:49;;;;;;;9.63;7.00;;;7.40;99.90;;;;;;5034335;28;20460;-45
2021/12/11 12:23:17;;;;;;;8.10;6.90;;;7.50;99.90;;;;;;5034543;28;20473;-46
2021/12/11 12:25:44;;;;;;;10.40;7.17;;;7.90;99.90;;;;;;5029239;28;20457;-49
2021/12/11 12:28:10;;;;;;;9.07;7.30;;;8.00;99.90;;;;;;5034356;28;20461;-47
2021/12/11 12:30:44;;;;;;;8.23;6.50;;;7.80;99.90;;;;;;5038606;28;20462;-46
2021/12/11 12:33:11;;;;;;;7.97;6.20;;;7.40;99.90;;;;;;5035493;28;20455;-44
2021/12/11 12:35:38;;;;;;;10.57;6.73;;;7.30;99.90;;;;;;5041312;28;20461;-48
2021/12/11 12:38:09;;;;;;;6.70;6.00;;;7.30;99.90;;;;;;5036027;28;20423;-48
2021/12/11 12:40:45;;;;;;;8.60;6.57;;;7.30;99.90;;;;;;5035641;28;20450;-47
2021/12/11 12:43:41;;;;;;;7.10;5.77;;;7.40;99.90;;;;;;5040612;28;20845;-49
2021/12/11 12:46:04;;;;;;;8.83;6.63;;;8.10;99.90;;;;;;5029072;28;20461;-47
2021/12/11 12:48:30;;;;;;;8.23;6.27;;;9.20;99.90;;;;;;5038165;28;20446;-48
2021/12/11 12:51:00;;;;;;;5.93;5.10;;;8.90;99.90;;;;;;5034499;28;21048;-48
2021/12/11 12:53:33;;;;;;;8.77;6.10;;;8.90;99.90;;;;;;5033197;28;20184;-46
2021/12/11 12:56:19;;;;;;;11.50;6.50;;;9.20;99.90;;;;;;5036723;28;20817;-48
2021/12/11 12:59:03;;;;;;;6.73;5.80;;;10.40;99.90;;;;;;5035514;28;20435;-48
2021/12/11 13:01:37;;;;;;;7.13;5.47;;;11.40;99.90;;;;;;5036735;28;20553;-50
2021/12/11 13:04:06;;;;;;;6.57;5.80;;;10.70;99.90;;;;;;5033488;28;20448;-47
2021/12/11 13:06:37;;;;;;;8.53;5.80;;;11.00;99.90;;;;;;5033958;28;20518;-44
2021/12/11 13:09:32;;;;;;;7.20;6.33;;;11.00;99.90;;;;;;5038118;28;20526;-46
2021/12/11 13:12:04;;;;;;;8.00;5.90;;;11.10;99.90;;;;;;5036515;28;20543;-46
2021/12/11 13:14:31;;;;;;;9.00;6.20;;;10.90;99.90;;;;;;5045111;28;20438;-49
2021/12/11 13:17:07;;;;;;;6.40;5.70;;;10.50;99.90;;;;;;5046623;28;20426;-50
2021/12/11 13:19:40;;;;;;;7.60;6.23;;;10.30;99.90;;;;;;5046572;28;21064;-50
2021/12/11 13:22:10;;;;;;;8.37;6.40;;;10.00;99.90;;;;;;5043652;28;20465;-44